Terminal Aerodrome Forecast
Issued by NWS Green Bay, WI

Home | Current Version | Previous Version | Graphics & Text | Print | Product List | Glossary On
Versions: 1 2 3 4 5 6 7 8 9 10 11 12 13 14 15 16 17 18 19 20 21 22 23 24 25 26 27 28 29 30 31 32 33 34 35 36
000
FTUS43 KGRB 211000 AAB
TAFGRB
TAF AMD
KGRB 211034Z 2111/2206 28009KT P6SM -SHRA SCT015 BKN025
      TEMPO 2111/2114 BKN015
     FM211400 36010KT P6SM BKN015 BKN035
     FM211600 36012G18KT P6SM BKN030
     FM211800 36012G18KT P6SM SCT035
     FM212300 36006KT P6SM SKC=

USA.gov is the U.S. government's official web portal to all federal, state and local government web resources and services.